createdAt,value
2018-08-31T00:03:06.649Z,79.63
2018-08-31T00:05:57.166Z,79.58
2018-08-31T00:08:05.701Z,79.76
2018-08-31T00:09:52.467Z,80.33
2018-08-31T00:11:41.653Z,80.44
2018-08-31T00:13:17.242Z,80.20
2018-08-31T00:14:52.970Z,79.93
2018-08-31T00:16:28.400Z,79.73
2018-08-31T00:18:03.868Z,79.56
2018-08-31T00:19:39.280Z,79.66
2018-08-31T00:21:14.788Z,79.98
2018-08-31T00:22:50.176Z,79.50
2018-08-31T00:24:36.860Z,79.35
2018-08-31T00:26:24.771Z,78.87
2018-08-31T00:28:11.786Z,79.30
2018-08-31T00:29:58.417Z,79.23
2018-08-31T00:33:47.792Z,79.15
2018-08-31T00:35:36.601Z,79.87
2018-08-31T00:41:30.710Z,80.23
2018-08-31T00:43:16.957Z,81.12
2018-08-31T00:45:02.113Z,81.37
2018-08-31T00:46:37.718Z,81.40
2018-08-31T00:48:13.123Z,80.99
2018-08-31T00:49:48.668Z,81.33
2018-08-31T00:51:24.469Z,80.78
2018-08-31T00:53:00.261Z,80.55
2018-08-31T00:54:35.943Z,80.94
2018-08-31T00:56:11.428Z,81.47
2018-08-31T00:57:47.411Z,81.79
2018-08-31T00:59:22.853Z,81.99
2018-08-31T01:00:58.362Z,81.87
2018-08-31T01:02:33.973Z,82.11
2018-08-31T01:04:09.506Z,81.98
2018-08-31T01:05:44.928Z,82.02
2018-08-31T01:07:20.372Z,81.94
2018-08-31T01:08:55.822Z,81.69
2018-08-31T01:10:31.276Z,82.07
2018-08-31T01:12:06.735Z,82.32
2018-08-31T01:13:42.238Z,82.28
2018-08-31T01:15:17.670Z,82.24
2018-08-31T01:16:53.115Z,81.74
2018-08-31T01:18:28.573Z,82.17
2018-08-31T01:20:04.018Z,81.92
2018-08-31T01:21:39.644Z,81.78
2018-08-31T01:23:15.097Z,81.36
2018-08-31T01:24:50.982Z,81.21
2018-08-31T01:26:27.377Z,81.24
2018-08-31T01:28:03.154Z,81.64
2018-08-31T01:29:38.534Z,81.89
2018-08-31T01:31:14.107Z,82.29
2018-08-31T01:32:49.590Z,81.84
2018-08-31T01:34:25.660Z,81.89
2018-08-31T01:36:02.064Z,81.99
2018-08-31T01:37:37.526Z,81.70
2018-08-31T01:39:13.090Z,81.61
2018-08-31T01:40:48.576Z,81.60
2018-08-31T01:42:23.993Z,82.11
2018-08-31T01:43:59.661Z,81.98
2018-08-31T01:45:35.706Z,81.90
2018-08-31T01:47:12.084Z,82.13
2018-08-31T01:48:47.807Z,81.97
2018-08-31T01:50:23.193Z,82.07
2018-08-31T01:51:58.622Z,82.15
2018-08-31T01:53:34.107Z,81.80
2018-08-31T01:55:09.558Z,82.31
2018-08-31T01:56:45.847Z,82.19
2018-08-31T01:58:21.590Z,82.57
2018-08-31T01:59:57.041Z,82.67
2018-08-31T02:01:32.527Z,82.62
2018-08-31T02:03:08.573Z,82.49
2018-08-31T02:04:44.009Z,82.39
2018-08-31T02:06:19.472Z,82.62
2018-08-31T02:07:55.457Z,82.90
2018-08-31T02:09:31.439Z,82.48
2018-08-31T02:11:07.682Z,82.80
2018-08-31T02:12:43.175Z,82.51
2018-08-31T02:14:18.627Z,82.29
2018-08-31T02:15:54.031Z,82.11
2018-08-31T02:17:30.078Z,82.05
2018-08-31T02:19:05.515Z,81.83
2018-08-31T02:20:40.956Z,82.22
2018-08-31T02:22:16.336Z,82.51
2018-08-31T02:23:51.825Z,82.31
2018-08-31T02:25:27.215Z,83.05
2018-08-31T02:27:02.669Z,82.87
2018-08-31T02:28:39.616Z,82.37
2018-08-31T02:30:15.044Z,82.80
2018-08-31T02:31:50.455Z,82.34
2018-08-31T02:33:25.906Z,82.70
2018-08-31T02:35:01.366Z,82.70
2018-08-31T02:36:36.775Z,82.73
2018-08-31T02:38:12.243Z,82.17
2018-08-31T02:39:47.697Z,82.34
2018-08-31T02:41:23.424Z,82.06
2018-08-31T02:42:58.923Z,82.45
2018-08-31T02:44:34.331Z,82.13
2018-08-31T02:46:09.875Z,81.41
2018-08-31T02:47:45.812Z,81.04
2018-08-31T02:49:21.258Z,80.72
2018-08-31T02:50:56.818Z,81.22
2018-08-31T02:52:32.442Z,81.71
2018-08-31T02:54:07.907Z,82.19
2018-08-31T02:55:43.595Z,81.94
2018-08-31T02:57:20.435Z,82.40
2018-08-31T02:58:56.695Z,81.97
2018-08-31T03:00:32.108Z,82.21
2018-08-31T03:02:08.579Z,82.09
2018-08-31T03:03:44.297Z,81.70
2018-08-31T03:05:19.891Z,81.86
2018-08-31T03:06:55.347Z,81.57
2018-08-31T03:08:30.841Z,81.35
2018-08-31T03:10:06.387Z,80.76
2018-08-31T03:11:42.026Z,81.01
2018-08-31T03:13:17.648Z,80.63
2018-08-31T03:14:53.059Z,79.86
2018-08-31T03:16:28.538Z,80.07
2018-08-31T03:18:04.022Z,80.42
2018-08-31T03:19:39.410Z,80.28
2018-08-31T03:21:15.759Z,80.58
2018-08-31T03:22:51.291Z,80.63
2018-08-31T03:24:26.747Z,80.73
2018-08-31T03:26:02.170Z,80.68
2018-08-31T03:27:38.233Z,81.26
2018-08-31T03:29:13.700Z,81.18
2018-08-31T03:30:49.506Z,80.79
2018-08-31T03:32:26.065Z,80.61
2018-08-31T03:34:01.445Z,80.60
2018-08-31T03:35:37.159Z,81.49
2018-08-31T03:37:12.582Z,81.19
2018-08-31T03:38:48.036Z,81.00
2018-08-31T03:40:23.496Z,80.73
2018-08-31T03:41:59.780Z,80.62
2018-08-31T03:43:35.249Z,80.65
2018-08-31T03:45:10.764Z,80.51
2018-08-31T03:46:46.481Z,80.74
2018-08-31T03:48:21.984Z,80.52
2018-08-31T03:49:57.482Z,80.54
2018-08-31T03:51:32.972Z,80.60
2018-08-31T03:53:08.431Z,80.53
2018-08-31T03:54:43.917Z,80.32
2018-08-31T03:56:19.341Z,80.38
2018-08-31T03:57:55.036Z,80.64
2018-08-31T03:59:30.564Z,80.22
2018-08-31T04:01:06.619Z,80.27
2018-08-31T04:02:42.072Z,80.13
2018-08-31T04:04:17.510Z,80.34
2018-08-31T04:05:55.102Z,80.09
2018-08-31T04:07:31.405Z,80.26
2018-08-31T04:09:07.996Z,80.07
2018-08-31T04:10:43.968Z,79.98
2018-08-31T04:12:20.022Z,79.36
2018-08-31T04:13:55.441Z,79.84
2018-08-31T04:15:33.210Z,79.70
2018-08-31T04:17:08.954Z,79.75
2018-08-31T04:18:44.973Z,79.68
2018-08-31T04:20:20.411Z,79.75
2018-08-31T04:21:56.111Z,79.87
2018-08-31T04:23:31.675Z,79.70
2018-08-31T04:25:08.181Z,79.94
2018-08-31T04:26:44.632Z,80.53
2018-08-31T04:28:20.112Z,80.80
2018-08-31T04:29:56.754Z,80.74
2018-08-31T04:31:32.223Z,81.20
2018-08-31T04:33:07.749Z,81.22
2018-08-31T04:34:43.218Z,81.49
2018-08-31T04:36:18.695Z,81.51
2018-08-31T04:37:55.078Z,80.80
2018-08-31T04:39:31.284Z,81.09
2018-08-31T04:41:06.876Z,80.89
2018-08-31T04:42:43.374Z,81.14
2018-08-31T04:44:18.890Z,80.97
2018-08-31T04:45:54.356Z,81.47
2018-08-31T04:47:29.910Z,80.79
2018-08-31T04:49:05.992Z,81.10
2018-08-31T04:50:41.506Z,81.23
2018-08-31T04:52:16.974Z,81.00
2018-08-31T04:53:52.983Z,80.71
2018-08-31T04:55:28.480Z,80.62
2018-08-31T04:57:03.979Z,80.54
2018-08-31T04:58:39.420Z,80.09
2018-08-31T05:00:14.914Z,80.07
2018-08-31T05:01:52.387Z,79.52
2018-08-31T05:03:27.842Z,79.02
2018-08-31T05:05:04.019Z,78.98
2018-08-31T05:06:39.488Z,78.74
2018-08-31T05:08:15.136Z,78.33
2018-08-31T05:09:50.590Z,78.33
2018-08-31T05:11:26.133Z,78.39
2018-08-31T05:13:02.044Z,77.61
2018-08-31T05:14:37.482Z,76.85
2018-08-31T05:16:13.789Z,76.52
2018-08-31T05:17:49.309Z,75.36
2018-08-31T05:19:25.822Z,75.09
2018-08-31T05:21:03.666Z,74.79
2018-08-31T05:22:39.906Z,74.16
2018-08-31T05:24:16.530Z,73.82
2018-08-31T05:25:51.993Z,72.88
2018-08-31T05:27:27.531Z,72.71
2018-08-31T05:29:03.570Z,72.15
2018-08-31T05:30:39.117Z,71.56
2018-08-31T05:32:14.918Z,72.10
2018-08-31T05:33:50.694Z,71.44
2018-08-31T05:35:26.890Z,71.27
2018-08-31T05:37:03.201Z,71.58
2018-08-31T05:38:38.668Z,71.51
2018-08-31T05:40:14.133Z,70.80
2018-08-31T05:41:49.539Z,70.31
2018-08-31T05:43:25.482Z,70.38
2018-08-31T05:45:01.311Z,69.94
2018-08-31T05:46:36.804Z,69.94
2018-08-31T05:48:12.814Z,70.57
2018-08-31T05:49:49.372Z,71.62
2018-08-31T05:51:25.301Z,72.58
2018-08-31T05:53:00.789Z,72.72
2018-08-31T05:54:38.921Z,73.39
2018-08-31T05:56:14.387Z,73.87
2018-08-31T05:57:49.841Z,73.94
2018-08-31T05:59:25.462Z,73.83
2018-08-31T06:01:00.911Z,73.70
2018-08-31T06:02:37.232Z,73.55
2018-08-31T06:04:13.613Z,73.78
2018-08-31T06:05:52.720Z,73.05
2018-08-31T06:07:29.257Z,73.39
2018-08-31T06:09:06.492Z,72.94
2018-08-31T06:10:41.968Z,72.40
2018-08-31T06:12:17.401Z,72.06
2018-08-31T06:13:52.825Z,72.30
2018-08-31T06:15:28.314Z,71.72
2018-08-31T06:17:04.608Z,71.66
2018-08-31T06:18:40.045Z,71.65
2018-08-31T06:20:16.525Z,71.11
2018-08-31T06:21:52.503Z,70.69
2018-08-31T06:23:29.060Z,70.57
2018-08-31T06:25:05.962Z,69.18
2018-08-31T06:26:41.394Z,68.92
2018-08-31T06:28:16.871Z,67.74
2018-08-31T06:29:53.373Z,67.27
2018-08-31T06:31:29.244Z,66.85
2018-08-31T06:33:04.752Z,66.59
2018-08-31T06:34:40.183Z,66.15
2018-08-31T06:36:16.506Z,65.71
2018-08-31T06:37:55.004Z,65.79
2018-08-31T06:39:31.543Z,65.65
2018-08-31T06:41:10.339Z,65.11
2018-08-31T06:42:45.799Z,64.07
2018-08-31T06:44:21.446Z,64.01
2018-08-31T06:45:57.608Z,63.95
2018-08-31T06:47:33.770Z,63.90
2018-08-31T06:49:09.297Z,63.42
2018-08-31T06:50:45.275Z,63.70
2018-08-31T06:52:22.098Z,63.57
2018-08-31T06:53:58.121Z,63.24
2018-08-31T06:55:35.042Z,63.67
2018-08-31T06:57:11.932Z,64.11
2018-08-31T06:58:47.454Z,63.69
2018-08-31T07:00:22.911Z,62.67
2018-08-31T07:01:58.347Z,62.44
2018-08-31T07:03:36.307Z,62.25
2018-08-31T07:05:12.152Z,62.33
2018-08-31T07:06:48.401Z,61.90
2018-08-31T07:08:23.823Z,61.79
2018-08-31T07:09:59.574Z,62.46
2018-08-31T07:11:35.013Z,62.95
2018-08-31T07:13:10.443Z,62.62
2018-08-31T07:14:48.604Z,63.52
2018-08-31T07:16:24.057Z,64.67
2018-08-31T07:17:59.495Z,64.77
2018-08-31T07:19:35.548Z,65.51
2018-08-31T07:21:10.994Z,65.67
2018-08-31T07:22:46.421Z,65.33
2018-08-31T07:24:21.843Z,65.38
2018-08-31T07:25:58.127Z,65.34
2018-08-31T07:27:34.168Z,64.75
2018-08-31T07:29:09.686Z,65.42
2018-08-31T07:30:45.647Z,64.81
2018-08-31T07:32:22.336Z,64.35
2018-08-31T07:33:58.180Z,64.33
2018-08-31T07:35:34.183Z,63.97
2018-08-31T07:37:10.148Z,62.69
2018-08-31T07:38:48.167Z,62.88
2018-08-31T07:40:25.076Z,62.73
2018-08-31T07:42:01.013Z,62.61
2018-08-31T07:43:37.364Z,63.30
2018-08-31T07:45:13.456Z,61.87
2018-08-31T07:46:48.890Z,62.31
2018-08-31T07:48:25.319Z,62.71
2018-08-31T07:50:00.874Z,63.30
2018-08-31T07:51:36.406Z,62.85
2018-08-31T07:53:11.922Z,62.40
2018-08-31T07:54:47.363Z,62.36
2018-08-31T07:56:22.942Z,62.35
2018-08-31T07:58:00.145Z,62.20
2018-08-31T07:59:36.506Z,62.03
2018-08-31T08:01:12.014Z,62.59
2018-08-31T08:02:47.479Z,62.30
2018-08-31T08:04:23.037Z,61.23
2018-08-31T08:05:58.569Z,60.78
2018-08-31T08:07:34.223Z,60.21
2018-08-31T08:09:10.122Z,59.62
2018-08-31T08:10:46.213Z,59.59
2018-08-31T08:12:21.633Z,58.52
2018-08-31T08:13:57.387Z,58.30
2018-08-31T08:15:34.829Z,58.27
2018-08-31T08:17:10.778Z,57.05
2018-08-31T08:18:46.430Z,56.51
2018-08-31T08:20:22.216Z,56.56
2018-08-31T08:21:59.586Z,56.87
2018-08-31T08:23:35.059Z,57.09
2018-08-31T08:25:10.907Z,56.66
2018-08-31T08:26:46.403Z,56.00
2018-08-31T08:28:22.969Z,55.67
2018-08-31T08:29:58.361Z,55.36
2018-08-31T08:31:33.867Z,55.12
2018-08-31T08:33:09.387Z,54.48
2018-08-31T08:34:46.380Z,55.18
2018-08-31T08:36:22.156Z,54.46
2018-08-31T08:37:57.559Z,54.14
2018-08-31T08:39:33.983Z,53.71
2018-08-31T08:41:09.450Z,53.11
2018-08-31T08:42:47.205Z,52.59
2018-08-31T08:44:24.019Z,51.98
2018-08-31T08:46:01.466Z,51.51
2018-08-31T08:47:37.571Z,50.98
2018-08-31T08:49:13.021Z,51.00
2018-08-31T08:50:49.272Z,50.87
2018-08-31T08:52:25.993Z,50.26
2018-08-31T08:54:01.400Z,49.30
2018-08-31T08:55:36.877Z,49.29
2018-08-31T08:57:14.987Z,47.37
2018-08-31T08:58:50.400Z,46.83
2018-08-31T09:00:28.809Z,47.02
2018-08-31T09:02:04.996Z,47.36
2018-08-31T09:03:44.007Z,48.45
2018-08-31T09:05:19.877Z,49.64
2018-08-31T09:06:55.289Z,49.95
2018-08-31T09:08:31.421Z,50.30
2018-08-31T09:10:08.020Z,50.27
2018-08-31T09:11:43.595Z,50.36
2018-08-31T09:13:19.727Z,50.76
2018-08-31T09:14:55.149Z,50.95
2018-08-31T09:16:31.106Z,50.89
2018-08-31T09:18:06.563Z,50.24
2018-08-31T09:19:41.993Z,48.96
2018-08-31T09:21:17.422Z,48.17
2018-08-31T09:22:53.118Z,46.43
2018-08-31T09:24:31.869Z,44.92
2018-08-31T09:26:11.704Z,44.54
2018-08-31T09:27:52.918Z,45.14
2018-08-31T09:29:28.591Z,44.94
2018-08-31T09:31:09.782Z,45.40
2018-08-31T09:32:45.384Z,45.61
2018-08-31T09:34:21.108Z,45.35
2018-08-31T09:35:56.920Z,45.12
2018-08-31T09:37:32.433Z,44.29
2018-08-31T09:39:08.728Z,43.70
2018-08-31T09:40:44.225Z,42.68
2018-08-31T09:42:20.070Z,41.54
2018-08-31T09:43:58.116Z,42.21
2018-08-31T09:45:33.823Z,41.52
2018-08-31T09:47:11.302Z,41.17
2018-08-31T09:48:47.161Z,40.65
2018-08-31T09:50:22.610Z,40.51
2018-08-31T09:51:59.558Z,41.62
2018-08-31T09:53:36.515Z,42.57
2018-08-31T09:55:13.832Z,43.72
2018-08-31T09:56:51.384Z,43.45
2018-08-31T09:58:27.764Z,44.41
2018-08-31T10:00:03.232Z,44.34
2018-08-31T10:01:39.548Z,44.48
2018-08-31T10:03:20.505Z,43.98
2018-08-31T10:04:57.907Z,42.95
2018-08-31T10:06:35.544Z,42.18
2018-08-31T10:08:11.778Z,41.24
2018-08-31T10:09:47.259Z,39.53
2018-08-31T10:11:22.710Z,39.78
2018-08-31T10:12:59.084Z,39.45
2018-08-31T10:14:35.385Z,39.30
2018-08-31T10:16:11.082Z,38.78
2018-08-31T10:17:46.530Z,40.25
2018-08-31T10:19:22.234Z,40.46
2018-08-31T10:20:58.723Z,41.10
2018-08-31T10:22:34.229Z,42.09
2018-08-31T10:24:11.785Z,43.48
2018-08-31T10:25:48.008Z,43.00
2018-08-31T10:27:23.473Z,42.83
2018-08-31T10:28:59.436Z,43.17
2018-08-31T10:30:37.187Z,42.12
2018-08-31T10:32:12.596Z,41.99
2018-08-31T10:33:48.055Z,41.97
2018-08-31T10:35:23.790Z,41.97
2018-08-31T10:37:00.300Z,40.90
2018-08-31T10:38:36.930Z,40.43
2018-08-31T10:40:12.684Z,40.38
2018-08-31T10:41:49.691Z,40.62
2018-08-31T10:43:26.110Z,40.35
2018-08-31T10:45:02.587Z,40.35
2018-08-31T10:46:40.108Z,39.74
2018-08-31T10:48:17.131Z,40.79
2018-08-31T10:49:53.667Z,40.53
2018-08-31T10:51:30.341Z,40.96
2018-08-31T10:53:08.791Z,41.24
2018-08-31T10:54:44.812Z,40.77
2018-08-31T10:56:22.098Z,40.72
2018-08-31T10:57:58.531Z,39.31
2018-08-31T10:59:36.672Z,39.11
2018-08-31T11:01:12.202Z,38.49
2018-08-31T11:02:48.651Z,38.14
2018-08-31T11:04:27.435Z,37.74
2018-08-31T11:06:03.581Z,37.35
2018-08-31T11:07:39.476Z,36.69
2018-08-31T11:09:16.029Z,36.11
2018-08-31T11:10:51.454Z,37.04
2018-08-31T11:12:27.193Z,36.98
2018-08-31T11:14:03.577Z,36.16
2018-08-31T11:15:40.342Z,35.74
2018-08-31T11:17:15.790Z,37.03
2018-08-31T11:18:51.311Z,38.65
2018-08-31T11:20:26.760Z,39.01
2018-08-31T11:22:02.603Z,40.23
2018-08-31T11:23:38.387Z,39.88
2018-08-31T11:25:14.323Z,40.28
2018-08-31T11:26:49.759Z,39.87
2018-08-31T11:28:26.612Z,39.93
2018-08-31T11:30:02.047Z,38.69
2018-08-31T11:31:38.422Z,38.43
2018-08-31T11:33:14.942Z,38.17
2018-08-31T11:34:50.681Z,37.83
2018-08-31T11:36:27.523Z,36.69
2018-08-31T11:38:02.943Z,36.85
2018-08-31T11:39:39.475Z,36.21
2018-08-31T11:41:16.546Z,36.19
2018-08-31T11:42:52.865Z,36.11
2018-08-31T11:44:28.314Z,35.34
2018-08-31T11:46:04.385Z,35.74
2018-08-31T11:47:40.348Z,35.41
2018-08-31T11:49:17.816Z,34.77
2018-08-31T11:50:54.299Z,34.89
2018-08-31T11:52:31.050Z,33.95
2018-08-31T11:54:08.240Z,33.32
2018-08-31T11:55:44.020Z,33.89
2018-08-31T11:57:19.552Z,32.96
2018-08-31T11:58:55.070Z,33.63
2018-08-31T12:00:31.480Z,33.47
2018-08-31T12:02:07.408Z,33.97
2018-08-31T12:03:42.824Z,34.02
2018-08-31T12:05:19.258Z,33.61
2018-08-31T12:06:55.659Z,34.88
2018-08-31T12:08:32.627Z,35.16
2018-08-31T12:10:09.411Z,35.31
2018-08-31T12:11:44.915Z,35.25
2018-08-31T12:13:20.377Z,34.67
2018-08-31T12:14:55.825Z,34.86
2018-08-31T12:16:32.888Z,34.76
2018-08-31T12:18:14.583Z,34.40
2018-08-31T12:19:56.723Z,33.69
2018-08-31T12:21:33.888Z,34.49
2018-08-31T12:23:14.703Z,34.40
2018-08-31T12:24:50.149Z,34.33
2018-08-31T12:26:27.878Z,33.99
2018-08-31T12:28:06.677Z,35.11
2018-08-31T12:29:42.375Z,35.42
2018-08-31T12:31:17.932Z,35.14
2018-08-31T12:32:53.414Z,34.92
2018-08-31T12:34:28.925Z,34.45
2018-08-31T12:36:05.033Z,34.88
2018-08-31T12:37:40.545Z,34.17
2018-08-31T12:39:16.997Z,33.47
2018-08-31T12:40:56.436Z,33.91
2018-08-31T12:42:33.192Z,34.21
2018-08-31T12:44:08.730Z,34.76
2018-08-31T12:45:44.465Z,33.79
2018-08-31T12:47:20.623Z,34.03
2018-08-31T12:48:56.617Z,33.48
2018-08-31T12:50:32.335Z,33.88
2018-08-31T12:52:07.774Z,34.96
2018-08-31T12:53:43.344Z,35.25
2018-08-31T12:55:18.788Z,35.05
2018-08-31T12:56:54.850Z,35.48
2018-08-31T12:58:30.630Z,34.60
2018-08-31T13:00:06.775Z,34.94
2018-08-31T13:01:43.097Z,34.55
2018-08-31T13:03:18.677Z,33.60
2018-08-31T13:04:54.125Z,33.84
2018-08-31T13:06:29.580Z,34.76
2018-08-31T13:08:05.479Z,34.85
2018-08-31T13:09:47.611Z,35.10
2018-08-31T13:11:23.165Z,35.76
2018-08-31T13:12:59.146Z,35.71
2018-08-31T13:14:34.792Z,35.23
2018-08-31T13:16:10.705Z,34.79
2018-08-31T13:17:47.463Z,34.20
2018-08-31T13:19:23.579Z,34.23
2018-08-31T13:20:59.145Z,34.70
2018-08-31T13:22:34.639Z,33.90
2018-08-31T13:24:10.087Z,33.92
2018-08-31T13:25:54.491Z,34.05
2018-08-31T13:27:30.867Z,32.90
2018-08-31T13:29:06.330Z,32.79
2018-08-31T13:30:42.610Z,33.70
2018-08-31T13:32:18.108Z,34.34
2018-08-31T13:33:53.652Z,33.08
2018-08-31T13:35:29.090Z,33.05
2018-08-31T13:37:04.553Z,34.07
2018-08-31T13:38:42.249Z,33.52
2018-08-31T13:40:17.687Z,34.37
2018-08-31T13:41:53.529Z,33.70
2018-08-31T13:43:28.973Z,33.98
2018-08-31T13:45:04.522Z,34.23
2018-08-31T13:46:40.180Z,34.39
2018-08-31T13:48:18.954Z,35.03
2018-08-31T13:49:55.039Z,34.82
2018-08-31T13:51:30.610Z,34.81
2018-08-31T13:53:06.028Z,33.91
2018-08-31T13:54:42.892Z,34.42
2018-08-31T13:56:18.464Z,34.81
2018-08-31T13:57:53.904Z,34.08
2018-08-31T13:59:29.506Z,33.75
2018-08-31T14:01:04.923Z,33.26
2018-08-31T14:02:40.454Z,33.48
2018-08-31T14:04:16.277Z,34.00
2018-08-31T14:05:52.124Z,34.09
2018-08-31T14:07:27.557Z,34.06
2018-08-31T14:09:05.387Z,33.61
2018-08-31T14:10:41.126Z,33.43
2018-08-31T14:12:16.740Z,33.02
2018-08-31T14:13:52.274Z,33.20
2018-08-31T14:15:27.784Z,32.49
2018-08-31T14:17:03.279Z,32.57
2018-08-31T14:18:38.759Z,33.13
2018-08-31T14:20:14.243Z,32.58
2018-08-31T14:21:49.718Z,32.55
2018-08-31T14:23:25.191Z,32.53
2018-08-31T14:25:00.655Z,32.22
2018-08-31T14:26:36.382Z,32.77
2018-08-31T14:28:12.987Z,33.56
2018-08-31T14:29:50.812Z,33.81
2018-08-31T14:31:27.433Z,34.45
2018-08-31T14:33:06.926Z,34.35
2018-08-31T14:34:42.686Z,34.48
2018-08-31T14:36:18.347Z,35.00
2018-08-31T14:37:54.540Z,35.10
2018-08-31T14:39:29.952Z,34.88
2018-08-31T14:41:05.474Z,34.69
2018-08-31T14:42:41.001Z,34.60
2018-08-31T14:44:16.549Z,34.21
2018-08-31T14:45:54.358Z,33.40
2018-08-31T14:47:29.868Z,33.67
2018-08-31T14:49:06.003Z,33.31
2018-08-31T14:50:41.490Z,33.24
2018-08-31T14:52:16.965Z,33.63
2018-08-31T14:53:53.514Z,33.50
2018-08-31T14:55:28.945Z,32.67
2018-08-31T14:57:04.846Z,33.02
2018-08-31T14:58:41.556Z,32.58
2018-08-31T15:00:17.208Z,33.01
2018-08-31T15:01:52.901Z,33.20
2018-08-31T15:03:28.362Z,33.41
2018-08-31T15:05:03.782Z,33.39
2018-08-31T15:06:39.689Z,32.96
2018-08-31T15:08:15.862Z,33.14
2018-08-31T15:09:52.143Z,32.46
2018-08-31T15:11:27.628Z,32.86
2018-08-31T15:13:03.639Z,32.72
2018-08-31T15:14:39.464Z,32.27
2018-08-31T15:16:15.206Z,32.19
2018-08-31T15:17:51.658Z,32.81
2018-08-31T15:19:27.766Z,32.74
2018-08-31T15:21:08.738Z,32.95
2018-08-31T15:22:44.153Z,33.14
2018-08-31T15:24:19.613Z,33.49
2018-08-31T15:25:55.656Z,33.49
2018-08-31T15:27:31.121Z,33.03
2018-08-31T15:29:06.954Z,32.99
2018-08-31T15:30:42.935Z,33.31
2018-08-31T15:32:19.262Z,33.67
2018-08-31T15:33:54.804Z,32.83
2018-08-31T15:35:30.235Z,32.96
2018-08-31T15:37:05.792Z,32.90
2018-08-31T15:38:41.786Z,33.31
2018-08-31T15:40:17.213Z,32.41
2018-08-31T15:41:54.122Z,31.83
2018-08-31T15:43:29.585Z,32.09
2018-08-31T15:45:06.984Z,32.52
2018-08-31T15:46:42.533Z,32.66
2018-08-31T15:48:18.665Z,32.96
2018-08-31T15:49:54.475Z,33.01
2018-08-31T15:51:32.093Z,34.06
2018-08-31T15:53:07.512Z,33.18
2018-08-31T15:54:43.098Z,34.09
2018-08-31T15:56:19.185Z,34.46
2018-08-31T15:57:56.258Z,34.31
2018-08-31T15:59:31.950Z,33.67
2018-08-31T16:01:09.081Z,33.74
2018-08-31T16:02:45.285Z,33.96
2018-08-31T16:04:20.851Z,34.05
2018-08-31T16:05:57.021Z,34.22
2018-08-31T16:07:33.516Z,34.18
2018-08-31T16:09:10.045Z,34.46
2018-08-31T16:10:46.270Z,34.10
2018-08-31T16:12:22.198Z,34.84
2018-08-31T16:13:57.968Z,34.60
2018-08-31T16:15:33.506Z,35.23
2018-08-31T16:17:09.200Z,35.09
2018-08-31T16:18:44.607Z,35.57
2018-08-31T16:20:21.355Z,35.27
2018-08-31T16:21:57.108Z,34.98
2018-08-31T16:23:32.762Z,35.29
2018-08-31T16:25:08.316Z,35.21
2018-08-31T16:26:49.129Z,35.21
2018-08-31T16:28:25.267Z,35.52
2018-08-31T16:30:01.492Z,35.05
2018-08-31T16:31:37.751Z,35.25
2018-08-31T16:33:15.623Z,35.78
2018-08-31T16:34:51.177Z,35.89
2018-08-31T16:36:26.610Z,35.87
2018-08-31T16:38:02.374Z,35.36
2018-08-31T16:39:38.961Z,35.21
2018-08-31T16:41:14.461Z,35.09
2018-08-31T16:42:50.159Z,35.34
2018-08-31T16:44:25.939Z,35.38
2018-08-31T16:46:01.504Z,34.95
2018-08-31T16:47:37.953Z,35.53
2018-08-31T16:49:15.025Z,35.72
2018-08-31T16:50:50.527Z,35.33
2018-08-31T16:52:26.414Z,35.60
2018-08-31T16:54:03.060Z,35.29
2018-08-31T16:55:38.635Z,35.66
2018-08-31T16:57:15.233Z,35.00
2018-08-31T16:58:51.491Z,35.80
2018-08-31T17:00:27.808Z,35.77
2018-08-31T17:02:09.434Z,36.15
2018-08-31T17:03:44.962Z,35.71
2018-08-31T17:05:20.378Z,36.03
2018-08-31T17:06:58.020Z,36.48
2018-08-31T17:08:34.016Z,36.43
2018-08-31T17:10:09.824Z,35.97
2018-08-31T17:11:46.025Z,36.04
2018-08-31T17:13:22.061Z,36.46
2018-08-31T17:14:57.721Z,37.03
2018-08-31T17:16:33.164Z,36.62
2018-08-31T17:18:09.672Z,36.51
2018-08-31T17:19:45.557Z,36.30
2018-08-31T17:21:21.524Z,36.82
2018-08-31T17:22:57.364Z,36.80
2018-08-31T17:24:32.899Z,36.87
2018-08-31T17:26:12.847Z,36.66
2018-08-31T17:27:55.063Z,37.75
2018-08-31T17:29:34.954Z,42.32
2018-08-31T17:31:16.486Z,44.67
2018-08-31T17:32:57.637Z,44.98
2018-08-31T17:34:40.256Z,44.29
2018-08-31T17:36:21.369Z,44.73
2018-08-31T17:37:59.692Z,45.45
2018-08-31T17:39:35.380Z,45.20
2018-08-31T17:41:11.403Z,45.32
2018-08-31T17:42:46.928Z,45.23
2018-08-31T17:44:23.018Z,44.79
2018-08-31T17:45:58.516Z,45.07
2018-08-31T17:47:34.228Z,45.00
2018-08-31T17:49:11.567Z,45.25
2018-08-31T17:50:47.159Z,44.82
2018-08-31T17:52:22.647Z,45.63
2018-08-31T17:53:58.384Z,45.75
2018-08-31T17:55:34.788Z,45.56
2018-08-31T17:57:10.467Z,46.14
2018-08-31T17:58:45.936Z,46.41
2018-08-31T18:00:22.872Z,47.41
2018-08-31T18:01:59.603Z,47.70
2018-08-31T18:03:35.934Z,47.80
2018-08-31T18:05:13.551Z,47.44
2018-08-31T18:06:49.600Z,47.84
2018-08-31T18:08:25.119Z,48.12
2018-08-31T18:10:00.788Z,48.62
2018-08-31T18:11:36.479Z,49.29
2018-08-31T18:13:11.969Z,48.72
2018-08-31T18:14:47.486Z,48.47
2018-08-31T18:16:25.080Z,48.95
2018-08-31T18:18:02.470Z,48.31
2018-08-31T18:19:37.933Z,48.91
2018-08-31T18:21:16.774Z,48.51
2018-08-31T18:22:58.138Z,49.38
2018-08-31T18:24:33.612Z,48.83
2018-08-31T18:27:50.812Z,49.22
2018-08-31T18:29:26.290Z,48.91
2018-08-31T18:31:01.848Z,48.91
2018-08-31T18:32:40.895Z,48.81
2018-08-31T18:34:13.145Z,48.79
2018-08-31T18:35:48.633Z,49.02
2018-08-31T18:37:24.176Z,49.09
2018-08-31T18:38:59.637Z,49.51
2018-08-31T18:40:37.860Z,49.26
2018-08-31T18:42:13.398Z,49.35
2018-08-31T18:43:49.466Z,49.22
2018-08-31T18:45:25.322Z,49.04
2018-08-31T18:47:04.969Z,49.13
2018-08-31T18:48:40.979Z,49.64
2018-08-31T18:50:16.407Z,49.44
2018-08-31T18:51:51.810Z,49.38
2018-08-31T18:53:27.298Z,49.36
2018-08-31T18:55:02.802Z,49.74
2018-08-31T18:56:38.508Z,49.84
2018-08-31T18:58:16.225Z,49.71
2018-08-31T18:59:51.692Z,49.95
2018-08-31T19:01:27.244Z,50.13
2018-08-31T19:03:02.658Z,49.62
2018-08-31T19:04:38.130Z,49.78
2018-08-31T19:06:13.559Z,49.88
2018-08-31T19:07:49.097Z,49.61
2018-08-31T19:09:26.044Z,49.93
2018-08-31T19:11:01.496Z,50.09
2018-08-31T19:12:37.437Z,50.76
2018-08-31T19:14:13.961Z,51.64
2018-08-31T19:15:49.412Z,51.21
2018-08-31T19:17:25.109Z,51.87
2018-08-31T19:19:00.701Z,51.59
2018-08-31T19:20:36.469Z,51.44
2018-08-31T19:22:11.888Z,50.80
2018-08-31T19:23:48.790Z,51.08
2018-08-31T19:25:24.314Z,51.21
2018-08-31T19:27:01.049Z,51.16
2018-08-31T19:28:36.809Z,51.48
2018-08-31T19:30:12.298Z,51.69
2018-08-31T19:31:47.739Z,52.00
2018-08-31T19:33:24.772Z,52.02
2018-08-31T19:35:00.361Z,51.55
2018-08-31T19:36:35.813Z,51.85
2018-08-31T19:38:11.278Z,51.47
2018-08-31T19:39:46.779Z,52.08
2018-08-31T19:41:22.270Z,51.75
2018-08-31T19:42:58.631Z,52.03
2018-08-31T19:44:40.674Z,51.71
2018-08-31T19:46:16.969Z,52.15
2018-08-31T19:47:52.444Z,52.21
2018-08-31T19:49:28.601Z,52.37
2018-08-31T19:51:04.078Z,53.04
2018-08-31T19:52:39.823Z,53.34
2018-08-31T19:54:15.610Z,52.64
2018-08-31T19:55:51.106Z,52.29
2018-08-31T19:57:26.569Z,51.93
2018-08-31T19:59:02.014Z,52.02
2018-08-31T20:00:37.445Z,52.39
2018-08-31T20:02:13.059Z,52.70
2018-08-31T20:03:48.600Z,52.38
2018-08-31T20:05:24.055Z,53.09
2018-08-31T20:07:00.447Z,53.11
2018-08-31T20:08:36.269Z,53.25
2018-08-31T20:10:12.075Z,53.50
2018-08-31T20:11:47.618Z,53.32
2018-08-31T20:13:23.101Z,53.30
2018-08-31T20:14:58.548Z,53.62
2018-08-31T20:16:34.048Z,54.31
2018-08-31T20:18:09.519Z,54.15
2018-08-31T20:19:44.957Z,54.09
2018-08-31T20:21:20.412Z,54.39
2018-08-31T20:22:55.845Z,54.36
2018-08-31T20:24:31.668Z,54.62
2018-08-31T20:26:07.418Z,54.56
2018-08-31T20:27:44.066Z,54.02
2018-08-31T20:29:19.615Z,54.06
2018-08-31T20:30:55.492Z,53.83
2018-08-31T20:32:31.004Z,53.92
2018-08-31T20:34:06.419Z,54.28
2018-08-31T20:35:41.819Z,54.47
2018-08-31T20:37:18.129Z,54.52
2018-08-31T20:38:53.588Z,54.40
2018-08-31T20:40:28.998Z,54.60
2018-08-31T20:42:04.451Z,54.71
2018-08-31T20:43:41.963Z,54.12
2018-08-31T20:45:17.402Z,54.32
2018-08-31T20:46:53.176Z,53.57
2018-08-31T20:48:28.779Z,53.81
2018-08-31T20:50:04.215Z,54.51
2018-08-31T20:51:39.717Z,54.98